sensor_id;sensor_type;location;lat;lon;timestamp;P1;durP1;ratioP1;P2;durP2;ratioP2
45338;SDS011;31071;51.478;5.710;2022-09-09T00:00:13;4.32;;;3.22;;
45338;SDS011;31071;51.478;5.710;2022-09-09T00:02:41;4.70;;;3.30;;
45338;SDS011;31071;51.478;5.710;2022-09-09T00:05:39;5.40;;;3.05;;
45338;SDS011;31071;51.478;5.710;2022-09-09T00:08:19;3.88;;;3.53;;
45338;SDS011;31071;51.478;5.710;2022-09-09T00:10:51;3.22;;;2.92;;
45338;SDS011;31071;51.478;5.710;2022-09-09T00:13:28;5.80;;;3.25;;
45338;SDS011;31071;51.478;5.710;2022-09-09T00:18:59;5.28;;;3.58;;
45338;SDS011;31071;51.478;5.710;2022-09-09T00:22:20;5.70;;;3.77;;
45338;SDS011;31071;51.478;5.710;2022-09-09T00:24:46;3.97;;;3.58;;
45338;SDS011;31071;51.478;5.710;2022-09-09T00:27:22;4.00;;;3.60;;
45338;SDS011;31071;51.478;5.710;2022-09-09T00:30:12;3.78;;;3.30;;
45338;SDS011;31071;51.478;5.710;2022-09-09T00:32:57;4.55;;;3.40;;
45338;SDS011;31071;51.478;5.710;2022-09-09T00:35:36;3.85;;;3.55;;
45338;SDS011;31071;51.478;5.710;2022-09-09T00:38:15;4.03;;;3.35;;
45338;SDS011;31071;51.478;5.710;2022-09-09T00:41:05;6.63;;;3.95;;
45338;SDS011;31071;51.478;5.710;2022-09-09T00:43:37;4.05;;;3.65;;
45338;SDS011;31071;51.478;5.710;2022-09-09T00:51:44;7.07;;;3.67;;
45338;SDS011;31071;51.478;5.710;2022-09-09T00:57:20;9.70;;;3.55;;
45338;SDS011;31071;51.478;5.710;2022-09-09T01:00:02;7.38;;;3.53;;
45338;SDS011;31071;51.478;5.710;2022-09-09T01:02:34;4.53;;;3.42;;
45338;SDS011;31071;51.478;5.710;2022-09-09T01:05:27;5.32;;;3.33;;
45338;SDS011;31071;51.478;5.710;2022-09-09T01:07:54;7.45;;;3.70;;
45338;SDS011;31071;51.478;5.710;2022-09-09T01:10:30;5.50;;;3.72;;
45338;SDS011;31071;51.478;5.710;2022-09-09T01:15:38;4.82;;;3.20;;
45338;SDS011;31071;51.478;5.710;2022-09-09T01:18:08;8.13;;;3.47;;
45338;SDS011;31071;51.478;5.710;2022-09-09T01:23:19;8.07;;;3.60;;
45338;SDS011;31071;51.478;5.710;2022-09-09T01:26:18;5.57;;;3.70;;
45338;SDS011;31071;51.478;5.710;2022-09-09T01:28:53;7.18;;;3.72;;
45338;SDS011;31071;51.478;5.710;2022-09-09T01:31:21;6.03;;;4.28;;
45338;SDS011;31071;51.478;5.710;2022-09-09T01:33:54;5.00;;;4.00;;
45338;SDS011;31071;51.478;5.710;2022-09-09T01:36:21;9.25;;;4.00;;
45338;SDS011;31071;51.478;5.710;2022-09-09T01:38:53;8.13;;;4.47;;
45338;SDS011;31071;51.478;5.710;2022-09-09T01:41:18;7.93;;;4.25;;
45338;SDS011;31071;51.478;5.710;2022-09-09T01:43:44;6.30;;;4.25;;
45338;SDS011;31071;51.478;5.710;2022-09-09T01:46:10;7.18;;;4.32;;
45338;SDS011;31071;51.478;5.710;2022-09-09T01:48:37;8.10;;;4.40;;
45338;SDS011;31071;51.478;5.710;2022-09-09T01:51:03;8.15;;;4.50;;
45338;SDS011;31071;51.478;5.710;2022-09-09T01:53:29;8.43;;;4.82;;
45338;SDS011;31071;51.478;5.710;2022-09-09T01:56:02;6.88;;;4.95;;
45338;SDS011;31071;51.478;5.710;2022-09-09T01:58:55;7.93;;;4.93;;
45338;SDS011;31071;51.478;5.710;2022-09-09T02:06:50;6.22;;;4.43;;
45338;SDS011;31071;51.478;5.710;2022-09-09T02:09:21;9.18;;;4.88;;
45338;SDS011;31071;51.478;5.710;2022-09-09T02:11:49;7.65;;;4.65;;
45338;SDS011;31071;51.478;5.710;2022-09-09T02:14:25;10.45;;;4.95;;
45338;SDS011;31071;51.478;5.710;2022-09-09T02:16:56;7.35;;;4.70;;
45338;SDS011;31071;51.478;5.710;2022-09-09T02:19:36;9.13;;;4.97;;
45338;SDS011;31071;51.478;5.710;2022-09-09T02:22:06;7.40;;;4.72;;
45338;SDS011;31071;51.478;5.710;2022-09-09T02:24:34;8.80;;;5.05;;
45338;SDS011;31071;51.478;5.710;2022-09-09T02:27:02;6.97;;;5.07;;
45338;SDS011;31071;51.478;5.710;2022-09-09T02:29:32;8.18;;;4.72;;
45338;SDS011;31071;51.478;5.710;2022-09-09T02:32:02;10.68;;;5.10;;
45338;SDS011;31071;51.478;5.710;2022-09-09T02:34:30;10.93;;;5.00;;
45338;SDS011;31071;51.478;5.710;2022-09-09T02:37:01;9.52;;;5.40;;
45338;SDS011;31071;51.478;5.710;2022-09-09T02:39:28;9.57;;;6.13;;
45338;SDS011;31071;51.478;5.710;2022-09-09T02:41:54;10.90;;;5.53;;
45338;SDS011;31071;51.478;5.710;2022-09-09T02:44:21;9.20;;;5.78;;
45338;SDS011;31071;51.478;5.710;2022-09-09T02:58:08;9.23;;;5.63;;
45338;SDS011;31071;51.478;5.710;2022-09-09T03:00:37;12.35;;;5.45;;
45338;SDS011;31071;51.478;5.710;2022-09-09T03:03:04;8.90;;;5.50;;
45338;SDS011;31071;51.478;5.710;2022-09-09T03:05:31;10.70;;;5.00;;
45338;SDS011;31071;51.478;5.710;2022-09-09T03:07:58;10.63;;;4.97;;
45338;SDS011;31071;51.478;5.710;2022-09-09T03:10:24;9.50;;;4.82;;
45338;SDS011;31071;51.478;5.710;2022-09-09T03:12:50;10.57;;;5.13;;
45338;SDS011;31071;51.478;5.710;2022-09-09T03:15:15;8.30;;;4.88;;
45338;SDS011;31071;51.478;5.710;2022-09-09T03:17:41;15.60;;;5.43;;
45338;SDS011;31071;51.478;5.710;2022-09-09T03:20:07;11.48;;;5.18;;
45338;SDS011;31071;51.478;5.710;2022-09-09T03:22:33;14.38;;;5.25;;
45338;SDS011;31071;51.478;5.710;2022-09-09T03:24:59;8.73;;;5.22;;
45338;SDS011;31071;51.478;5.710;2022-09-09T03:27:26;11.88;;;5.35;;
45338;SDS011;31071;51.478;5.710;2022-09-09T03:29:51;10.93;;;5.20;;
45338;SDS011;31071;51.478;5.710;2022-09-09T03:32:18;13.82;;;5.28;;
45338;SDS011;31071;51.478;5.710;2022-09-09T03:34:47;13.27;;;5.03;;
45338;SDS011;31071;51.478;5.710;2022-09-09T03:37:14;9.18;;;4.65;;
45338;SDS011;31071;51.478;5.710;2022-09-09T03:39:40;9.80;;;4.97;;
45338;SDS011;31071;51.478;5.710;2022-09-09T03:42:06;6.47;;;4.50;;
45338;SDS011;31071;51.478;5.710;2022-09-09T03:44:31;10.77;;;5.03;;
45338;SDS011;31071;51.478;5.710;2022-09-09T03:46:57;13.55;;;5.28;;
45338;SDS011;31071;51.478;5.710;2022-09-09T03:49:25;10.60;;;4.32;;
45338;SDS011;31071;51.478;5.710;2022-09-09T03:51:51;10.52;;;5.03;;
45338;SDS011;31071;51.478;5.710;2022-09-09T03:54:16;14.95;;;4.90;;
45338;SDS011;31071;51.478;5.710;2022-09-09T03:56:42;16.77;;;4.85;;
45338;SDS011;31071;51.478;5.710;2022-09-09T03:59:07;12.85;;;4.60;;
45338;SDS011;31071;51.478;5.710;2022-09-09T04:01:33;9.10;;;4.20;;
45338;SDS011;31071;51.478;5.710;2022-09-09T04:03:59;9.95;;;5.05;;
45338;SDS011;31071;51.478;5.710;2022-09-09T04:06:27;9.00;;;4.13;;
45338;SDS011;31071;51.478;5.710;2022-09-09T04:08:53;11.85;;;4.47;;
45338;SDS011;31071;51.478;5.710;2022-09-09T04:11:20;15.57;;;5.05;;
45338;SDS011;31071;51.478;5.710;2022-09-09T04:13:45;12.45;;;4.90;;
45338;SDS011;31071;51.478;5.710;2022-09-09T04:16:11;8.98;;;4.65;;
45338;SDS011;31071;51.478;5.710;2022-09-09T04:18:40;12.07;;;4.90;;
45338;SDS011;31071;51.478;5.710;2022-09-09T04:21:06;13.13;;;5.00;;
45338;SDS011;31071;51.478;5.710;2022-09-09T04:23:34;10.20;;;4.97;;
45338;SDS011;31071;51.478;5.710;2022-09-09T04:26:00;8.52;;;4.65;;
45338;SDS011;31071;51.478;5.710;2022-09-09T04:28:29;9.40;;;4.35;;
45338;SDS011;31071;51.478;5.710;2022-09-09T04:30:56;10.75;;;4.30;;
45338;SDS011;31071;51.478;5.710;2022-09-09T04:33:28;9.55;;;4.32;;
45338;SDS011;31071;51.478;5.710;2022-09-09T04:35:53;13.90;;;5.13;;
45338;SDS011;31071;51.478;5.710;2022-09-09T04:38:30;9.57;;;4.70;;
45338;SDS011;31071;51.478;5.710;2022-09-09T04:40:56;9.45;;;4.28;;
45338;SDS011;31071;51.478;5.710;2022-09-09T04:43:22;8.23;;;4.30;;
45338;SDS011;31071;51.478;5.710;2022-09-09T04:45:48;13.00;;;4.60;;
45338;SDS011;31071;51.478;5.710;2022-09-09T04:48:14;12.43;;;4.43;;
45338;SDS011;31071;51.478;5.710;2022-09-09T04:50:40;8.07;;;4.38;;
45338;SDS011;31071;51.478;5.710;2022-09-09T04:53:06;9.35;;;4.20;;
45338;SDS011;31071;51.478;5.710;2022-09-09T04:55:31;16.15;;;4.38;;
45338;SDS011;31071;51.478;5.710;2022-09-09T04:58:05;12.00;;;3.90;;
45338;SDS011;31071;51.478;5.710;2022-09-09T05:00:32;9.88;;;4.03;;
45338;SDS011;31071;51.478;5.710;2022-09-09T05:03:04;12.35;;;4.47;;
45338;SDS011;31071;51.478;5.710;2022-09-09T05:05:30;11.25;;;4.00;;
45338;SDS011;31071;51.478;5.710;2022-09-09T05:08:06;9.13;;;3.90;;
45338;SDS011;31071;51.478;5.710;2022-09-09T05:10:33;14.45;;;4.88;;
45338;SDS011;31071;51.478;5.710;2022-09-09T05:13:01;14.77;;;4.15;;
45338;SDS011;31071;51.478;5.710;2022-09-09T05:15:27;13.00;;;4.15;;
45338;SDS011;31071;51.478;5.710;2022-09-09T05:18:05;11.73;;;4.25;;
45338;SDS011;31071;51.478;5.710;2022-09-09T05:20:31;11.48;;;4.28;;
45338;SDS011;31071;51.478;5.710;2022-09-09T05:22:56;11.80;;;3.97;;
45338;SDS011;31071;51.478;5.710;2022-09-09T05:25:22;9.13;;;4.22;;
45338;SDS011;31071;51.478;5.710;2022-09-09T05:27:50;10.85;;;3.95;;
45338;SDS011;31071;51.478;5.710;2022-09-09T05:30:18;9.57;;;4.10;;
45338;SDS011;31071;51.478;5.710;2022-09-09T05:32:44;11.07;;;4.05;;
45338;SDS011;31071;51.478;5.710;2022-09-09T05:35:09;9.18;;;4.43;;
45338;SDS011;31071;51.478;5.710;2022-09-09T05:37:43;13.88;;;4.20;;
45338;SDS011;31071;51.478;5.710;2022-09-09T05:40:10;9.98;;;3.75;;
45338;SDS011;31071;51.478;5.710;2022-09-09T05:42:37;14.23;;;4.07;;
45338;SDS011;31071;51.478;5.710;2022-09-09T05:45:04;10.18;;;3.85;;
45338;SDS011;31071;51.478;5.710;2022-09-09T05:47:30;13.23;;;4.45;;
45338;SDS011;31071;51.478;5.710;2022-09-09T05:49:55;9.20;;;4.03;;
45338;SDS011;31071;51.478;5.710;2022-09-09T05:52:21;7.45;;;3.65;;
45338;SDS011;31071;51.478;5.710;2022-09-09T05:54:47;8.30;;;4.05;;
45338;SDS011;31071;51.478;5.710;2022-09-09T05:57:13;18.90;;;4.35;;
45338;SDS011;31071;51.478;5.710;2022-09-09T05:59:38;11.35;;;4.20;;
45338;SDS011;31071;51.478;5.710;2022-09-09T06:02:04;15.05;;;4.65;;
45338;SDS011;31071;51.478;5.710;2022-09-09T06:04:29;11.15;;;4.38;;
45338;SDS011;31071;51.478;5.710;2022-09-09T06:06:55;16.00;;;4.43;;
45338;SDS011;31071;51.478;5.710;2022-09-09T06:09:21;11.45;;;5.00;;
45338;SDS011;31071;51.478;5.710;2022-09-09T06:11:46;15.20;;;5.00;;
45338;SDS011;31071;51.478;5.710;2022-09-09T06:14:12;11.38;;;4.40;;
45338;SDS011;31071;51.478;5.710;2022-09-09T06:16:37;13.48;;;5.32;;
45338;SDS011;31071;51.478;5.710;2022-09-09T06:19:03;15.63;;;4.60;;
45338;SDS011;31071;51.478;5.710;2022-09-09T06:21:30;12.07;;;4.78;;
45338;SDS011;31071;51.478;5.710;2022-09-09T06:23:58;15.88;;;4.75;;
45338;SDS011;31071;51.478;5.710;2022-09-09T06:26:25;15.00;;;4.90;;
45338;SDS011;31071;51.478;5.710;2022-09-09T06:28:53;16.02;;;4.70;;
45338;SDS011;31071;51.478;5.710;2022-09-09T06:31:21;17.83;;;5.07;;
45338;SDS011;31071;51.478;5.710;2022-09-09T06:33:48;11.77;;;3.85;;
45338;SDS011;31071;51.478;5.710;2022-09-09T06:36:18;13.25;;;4.18;;
45338;SDS011;31071;51.478;5.710;2022-09-09T06:38:46;11.27;;;4.40;;
45338;SDS011;31071;51.478;5.710;2022-09-09T06:41:13;9.80;;;4.32;;
45338;SDS011;31071;51.478;5.710;2022-09-09T06:43:39;11.50;;;4.70;;
45338;SDS011;31071;51.478;5.710;2022-09-09T06:46:06;12.73;;;4.60;;
45338;SDS011;31071;51.478;5.710;2022-09-09T06:48:36;9.93;;;4.40;;
45338;SDS011;31071;51.478;5.710;2022-09-09T06:51:07;11.35;;;4.55;;
45338;SDS011;31071;51.478;5.710;2022-09-09T06:53:41;14.20;;;4.60;;
45338;SDS011;31071;51.478;5.710;2022-09-09T06:58:39;13.48;;;4.13;;
45338;SDS011;31071;51.478;5.710;2022-09-09T07:01:09;10.20;;;3.92;;
45338;SDS011;31071;51.478;5.710;2022-09-09T07:03:37;14.20;;;4.28;;
45338;SDS011;31071;51.478;5.710;2022-09-09T07:06:03;12.10;;;3.50;;
45338;SDS011;31071;51.478;5.710;2022-09-09T07:08:30;12.63;;;3.67;;
45338;SDS011;31071;51.478;5.710;2022-09-09T07:11:01;11.07;;;3.17;;
45338;SDS011;31071;51.478;5.710;2022-09-09T07:13:29;13.23;;;3.20;;
45338;SDS011;31071;51.478;5.710;2022-09-09T07:16:02;10.13;;;3.35;;
45338;SDS011;31071;51.478;5.710;2022-09-09T07:18:29;10.70;;;3.25;;
45338;SDS011;31071;51.478;5.710;2022-09-09T07:20:55;11.10;;;3.05;;
45338;SDS011;31071;51.478;5.710;2022-09-09T07:23:21;7.30;;;2.92;;
45338;SDS011;31071;51.478;5.710;2022-09-09T07:25:47;10.60;;;3.03;;
45338;SDS011;31071;51.478;5.710;2022-09-09T07:28:14;14.43;;;2.90;;
45338;SDS011;31071;51.478;5.710;2022-09-09T07:30:39;9.77;;;2.90;;
45338;SDS011;31071;51.478;5.710;2022-09-09T07:33:05;13.63;;;2.85;;
45338;SDS011;31071;51.478;5.710;2022-09-09T07:35:31;11.70;;;2.58;;
45338;SDS011;31071;51.478;5.710;2022-09-09T07:38:00;9.85;;;2.60;;
45338;SDS011;31071;51.478;5.710;2022-09-09T07:40:26;14.30;;;3.30;;
45338;SDS011;31071;51.478;5.710;2022-09-09T07:42:52;11.50;;;2.88;;
45338;SDS011;31071;51.478;5.710;2022-09-09T07:45:18;8.35;;;2.85;;
45338;SDS011;31071;51.478;5.710;2022-09-09T07:47:44;12.20;;;2.85;;
45338;SDS011;31071;51.478;5.710;2022-09-09T07:50:10;11.95;;;2.90;;
45338;SDS011;31071;51.478;5.710;2022-09-09T07:52:36;7.18;;;2.78;;
45338;SDS011;31071;51.478;5.710;2022-09-09T07:55:02;9.63;;;2.53;;
45338;SDS011;31071;51.478;5.710;2022-09-09T07:57:29;10.70;;;2.58;;
45338;SDS011;31071;51.478;5.710;2022-09-09T07:59:56;7.15;;;2.20;;
45338;SDS011;31071;51.478;5.710;2022-09-09T08:02:22;10.05;;;2.70;;
45338;SDS011;31071;51.478;5.710;2022-09-09T08:04:48;8.30;;;2.38;;
45338;SDS011;31071;51.478;5.710;2022-09-09T08:07:14;7.50;;;1.90;;
45338;SDS011;31071;51.478;5.710;2022-09-09T08:09:41;10.90;;;3.08;;
45338;SDS011;31071;51.478;5.710;2022-09-09T08:12:06;9.05;;;2.60;;
45338;SDS011;31071;51.478;5.710;2022-09-09T08:14:33;10.77;;;2.40;;
45338;SDS011;31071;51.478;5.710;2022-09-09T08:17:00;10.20;;;2.80;;
45338;SDS011;31071;51.478;5.710;2022-09-09T08:19:26;9.68;;;2.78;;
45338;SDS011;31071;51.478;5.710;2022-09-09T08:21:54;8.07;;;2.60;;
45338;SDS011;31071;51.478;5.710;2022-09-09T08:24:19;13.52;;;2.67;;
45338;SDS011;31071;51.478;5.710;2022-09-09T08:26:46;14.13;;;2.60;;
45338;SDS011;31071;51.478;5.710;2022-09-09T08:29:14;7.53;;;2.25;;
45338;SDS011;31071;51.478;5.710;2022-09-09T08:31:42;7.75;;;2.47;;
45338;SDS011;31071;51.478;5.710;2022-09-09T08:34:13;8.05;;;2.13;;
45338;SDS011;31071;51.478;5.710;2022-09-09T08:36:40;18.95;;;2.83;;
45338;SDS011;31071;51.478;5.710;2022-09-09T08:39:07;12.77;;;2.83;;
45338;SDS011;31071;51.478;5.710;2022-09-09T08:44:40;7.93;;;2.30;;
45338;SDS011;31071;51.478;5.710;2022-09-09T08:47:35;13.02;;;2.83;;
45338;SDS011;31071;51.478;5.710;2022-09-09T08:55:33;8.65;;;2.20;;
45338;SDS011;31071;51.478;5.710;2022-09-09T08:58:21;10.10;;;2.13;;
45338;SDS011;31071;51.478;5.710;2022-09-09T09:11:48;9.30;;;2.38;;
45338;SDS011;31071;51.478;5.710;2022-09-09T09:14:23;8.85;;;2.08;;
45338;SDS011;31071;51.478;5.710;2022-09-09T09:19:38;11.85;;;2.30;;
45338;SDS011;31071;51.478;5.710;2022-09-09T09:22:11;10.30;;;2.05;;
45338;SDS011;31071;51.478;5.710;2022-09-09T09:30:21;12.98;;;2.58;;
45338;SDS011;31071;51.478;5.710;2022-09-09T09:32:55;7.05;;;1.95;;
45338;SDS011;31071;51.478;5.710;2022-09-09T09:35:33;8.05;;;2.13;;
45338;SDS011;31071;51.478;5.710;2022-09-09T09:38:01;11.13;;;1.88;;
45338;SDS011;31071;51.478;5.710;2022-09-09T09:40:36;14.13;;;2.53;;
45338;SDS011;31071;51.478;5.710;2022-09-09T09:43:23;6.82;;;1.80;;
45338;SDS011;31071;51.478;5.710;2022-09-09T09:45:54;15.10;;;2.25;;
45338;SDS011;31071;51.478;5.710;2022-09-09T09:48:20;6.60;;;1.60;;
45338;SDS011;31071;51.478;5.710;2022-09-09T09:50:46;8.43;;;1.88;;
45338;SDS011;31071;51.478;5.710;2022-09-09T09:53:22;9.88;;;1.95;;
45338;SDS011;31071;51.478;5.710;2022-09-09T09:58:33;7.45;;;2.00;;
45338;SDS011;31071;51.478;5.710;2022-09-09T10:01:22;11.27;;;2.50;;
45338;SDS011;31071;51.478;5.710;2022-09-09T10:03:52;9.88;;;2.50;;
45338;SDS011;31071;51.478;5.710;2022-09-09T10:06:30;7.70;;;2.17;;
45338;SDS011;31071;51.478;5.710;2022-09-09T10:08:58;4.28;;;2.00;;
45338;SDS011;31071;51.478;5.710;2022-09-09T10:14:00;6.70;;;1.70;;
45338;SDS011;31071;51.478;5.710;2022-09-09T10:20:11;5.65;;;1.95;;
45338;SDS011;31071;51.478;5.710;2022-09-09T10:22:52;8.27;;;1.45;;
45338;SDS011;31071;51.478;5.710;2022-09-09T10:33:32;8.40;;;1.83;;
45338;SDS011;31071;51.478;5.710;2022-09-09T10:36:13;11.35;;;2.45;;
45338;SDS011;31071;51.478;5.710;2022-09-09T10:38:57;5.70;;;1.80;;
45338;SDS011;31071;51.478;5.710;2022-09-09T10:41:54;8.07;;;1.88;;
45338;SDS011;31071;51.478;5.710;2022-09-09T10:53:19;7.93;;;2.40;;
45338;SDS011;31071;51.478;5.710;2022-09-09T10:56:09;8.38;;;2.60;;
45338;SDS011;31071;51.478;5.710;2022-09-09T11:01:38;13.43;;;3.35;;
45338;SDS011;31071;51.478;5.710;2022-09-09T11:04:16;12.18;;;3.40;;
45338;SDS011;31071;51.478;5.710;2022-09-09T11:06:48;10.85;;;3.60;;
45338;SDS011;31071;51.478;5.710;2022-09-09T11:09:18;11.30;;;4.25;;
45338;SDS011;31071;51.478;5.710;2022-09-09T11:11:54;16.25;;;4.25;;
45338;SDS011;31071;51.478;5.710;2022-09-09T11:14:28;11.73;;;4.63;;
45338;SDS011;31071;51.478;5.710;2022-09-09T11:17:18;15.63;;;5.05;;
45338;SDS011;31071;51.478;5.710;2022-09-09T11:24:52;9.38;;;4.65;;
45338;SDS011;31071;51.478;5.710;2022-09-09T11:36:20;6.18;;;2.85;;
45338;SDS011;31071;51.478;5.710;2022-09-09T11:41:38;5.40;;;2.45;;
45338;SDS011;31071;51.478;5.710;2022-09-09T11:44:10;6.65;;;2.95;;
45338;SDS011;31071;51.478;5.710;2022-09-09T11:46:38;8.35;;;2.63;;
45338;SDS011;31071;51.478;5.710;2022-09-09T11:49:06;8.50;;;3.00;;
45338;SDS011;31071;51.478;5.710;2022-09-09T11:51:52;9.13;;;3.03;;
45338;SDS011;31071;51.478;5.710;2022-09-09T11:54:28;4.82;;;2.45;;
45338;SDS011;31071;51.478;5.710;2022-09-09T11:56:56;5.30;;;2.70;;
45338;SDS011;31071;51.478;5.710;2022-09-09T11:59:31;9.55;;;2.60;;
45338;SDS011;31071;51.478;5.710;2022-09-09T12:01:59;10.63;;;3.22;;
45338;SDS011;31071;51.478;5.710;2022-09-09T12:04:30;7.20;;;3.28;;
45338;SDS011;31071;51.478;5.710;2022-09-09T12:17:19;8.88;;;3.50;;
45338;SDS011;31071;51.478;5.710;2022-09-09T12:19:47;7.10;;;3.13;;
45338;SDS011;31071;51.478;5.710;2022-09-09T12:25:36;10.45;;;3.58;;
45338;SDS011;31071;51.478;5.710;2022-09-09T12:28:31;9.13;;;3.38;;
45338;SDS011;31071;51.478;5.710;2022-09-09T12:33:47;7.50;;;3.22;;
45338;SDS011;31071;51.478;5.710;2022-09-09T12:36:16;9.00;;;3.28;;
45338;SDS011;31071;51.478;5.710;2022-09-09T12:38:44;8.20;;;2.78;;
45338;SDS011;31071;51.478;5.710;2022-09-09T12:41:19;10.52;;;3.03;;
45338;SDS011;31071;51.478;5.710;2022-09-09T12:44:03;10.85;;;3.67;;
45338;SDS011;31071;51.478;5.710;2022-09-09T12:46:44;5.05;;;2.67;;
45338;SDS011;31071;51.478;5.710;2022-09-09T12:49:25;7.63;;;2.65;;
45338;SDS011;31071;51.478;5.710;2022-09-09T12:52:16;8.55;;;2.10;;
45338;SDS011;31071;51.478;5.710;2022-09-09T12:54:47;7.03;;;2.33;;
45338;SDS011;31071;51.478;5.710;2022-09-09T12:57:15;6.80;;;2.42;;
45338;SDS011;31071;51.478;5.710;2022-09-09T12:59:42;6.97;;;2.13;;
45338;SDS011;31071;51.478;5.710;2022-09-09T13:04:44;8.00;;;2.45;;
45338;SDS011;31071;51.478;5.710;2022-09-09T13:07:11;4.68;;;2.22;;
45338;SDS011;31071;51.478;5.710;2022-09-09T13:09:38;8.07;;;2.33;;
45338;SDS011;31071;51.478;5.710;2022-09-09T13:12:04;6.95;;;2.00;;
45338;SDS011;31071;51.478;5.710;2022-09-09T13:14:33;8.55;;;2.10;;
45338;SDS011;31071;51.478;5.710;2022-09-09T13:17:04;8.02;;;2.22;;
45338;SDS011;31071;51.478;5.710;2022-09-09T13:19:32;8.63;;;2.67;;
45338;SDS011;31071;51.478;5.710;2022-09-09T13:23:03;5.78;;;2.20;;
45338;SDS011;31071;51.478;5.710;2022-09-09T13:27:53;5.15;;;2.08;;
45338;SDS011;31071;51.478;5.710;2022-09-09T13:30:33;5.65;;;1.85;;
45338;SDS011;31071;51.478;5.710;2022-09-09T13:35:55;6.60;;;1.80;;
45338;SDS011;31071;51.478;5.710;2022-09-09T13:38:25;3.42;;;1.52;;
45338;SDS011;31071;51.478;5.710;2022-09-09T13:40:59;4.55;;;1.27;;
45338;SDS011;31071;51.478;5.710;2022-09-09T13:43:42;7.47;;;1.50;;
45338;SDS011;31071;51.478;5.710;2022-09-09T13:46:30;3.38;;;1.27;;
45338;SDS011;31071;51.478;5.710;2022-09-09T13:51:36;4.35;;;1.38;;
45338;SDS011;31071;51.478;5.710;2022-09-09T13:54:02;7.35;;;1.65;;
45338;SDS011;31071;51.478;5.710;2022-09-09T13:56:30;5.28;;;1.60;;
45338;SDS011;31071;51.478;5.710;2022-09-09T13:58:56;6.90;;;1.58;;
45338;SDS011;31071;51.478;5.710;2022-09-09T14:01:23;4.90;;;1.40;;
45338;SDS011;31071;51.478;5.710;2022-09-09T14:03:49;3.17;;;1.45;;
45338;SDS011;31071;51.478;5.710;2022-09-09T14:06:15;4.00;;;1.17;;
45338;SDS011;31071;51.478;5.710;2022-09-09T14:08:42;3.85;;;1.35;;
45338;SDS011;31071;51.478;5.710;2022-09-09T14:11:08;2.92;;;1.20;;
45338;SDS011;31071;51.478;5.710;2022-09-09T14:13:37;5.20;;;1.30;;
45338;SDS011;31071;51.478;5.710;2022-09-09T14:16:03;5.40;;;1.30;;
45338;SDS011;31071;51.478;5.710;2022-09-09T14:18:28;6.28;;;1.27;;
45338;SDS011;31071;51.478;5.710;2022-09-09T14:20:54;3.25;;;1.10;;
45338;SDS011;31071;51.478;5.710;2022-09-09T14:23:20;4.82;;;1.63;;
45338;SDS011;31071;51.478;5.710;2022-09-09T14:25:47;4.40;;;1.20;;
45338;SDS011;31071;51.478;5.710;2022-09-09T14:28:13;4.15;;;1.30;;
45338;SDS011;31071;51.478;5.710;2022-09-09T14:30:40;6.93;;;1.48;;
45338;SDS011;31071;51.478;5.710;2022-09-09T14:33:07;5.28;;;1.77;;
45338;SDS011;31071;51.478;5.710;2022-09-09T14:35:34;4.32;;;1.45;;
45338;SDS011;31071;51.478;5.710;2022-09-09T14:38:01;4.85;;;1.20;;
45338;SDS011;31071;51.478;5.710;2022-09-09T14:40:27;6.60;;;1.40;;
45338;SDS011;31071;51.478;5.710;2022-09-09T14:42:53;3.10;;;1.20;;
45338;SDS011;31071;51.478;5.710;2022-09-09T14:45:18;2.38;;;1.25;;
45338;SDS011;31071;51.478;5.710;2022-09-09T14:47:46;4.20;;;1.27;;
45338;SDS011;31071;51.478;5.710;2022-09-09T14:50:11;3.60;;;1.38;;
45338;SDS011;31071;51.478;5.710;2022-09-09T14:52:37;4.63;;;1.65;;
45338;SDS011;31071;51.478;5.710;2022-09-09T14:55:03;3.13;;;1.33;;
45338;SDS011;31071;51.478;5.710;2022-09-09T14:57:32;3.70;;;1.33;;
45338;SDS011;31071;51.478;5.710;2022-09-09T14:59:57;8.18;;;1.52;;
45338;SDS011;31071;51.478;5.710;2022-09-09T15:02:23;3.08;;;1.48;;
45338;SDS011;31071;51.478;5.710;2022-09-09T15:04:48;7.13;;;2.13;;
45338;SDS011;31071;51.478;5.710;2022-09-09T15:07:15;2.80;;;1.40;;
45338;SDS011;31071;51.478;5.710;2022-09-09T15:09:42;4.68;;;1.40;;
45338;SDS011;31071;51.478;5.710;2022-09-09T15:12:07;4.05;;;1.30;;
45338;SDS011;31071;51.478;5.710;2022-09-09T15:14:33;6.47;;;1.77;;
45338;SDS011;31071;51.478;5.710;2022-09-09T15:17:00;6.55;;;1.48;;
45338;SDS011;31071;51.478;5.710;2022-09-09T15:19:26;3.58;;;1.33;;
45338;SDS011;31071;51.478;5.710;2022-09-09T15:21:51;6.28;;;1.83;;
45338;SDS011;31071;51.478;5.710;2022-09-09T15:24:17;5.25;;;1.67;;
45338;SDS011;31071;51.478;5.710;2022-09-09T15:26:43;4.82;;;1.73;;
45338;SDS011;31071;51.478;5.710;2022-09-09T15:29:08;5.07;;;1.65;;
45338;SDS011;31071;51.478;5.710;2022-09-09T15:31:34;3.53;;;1.27;;
45338;SDS011;31071;51.478;5.710;2022-09-09T15:34:00;4.78;;;1.48;;
45338;SDS011;31071;51.478;5.710;2022-09-09T15:38:58;5.15;;;1.35;;
45338;SDS011;31071;51.478;5.710;2022-09-09T15:41:25;7.15;;;1.88;;
45338;SDS011;31071;51.478;5.710;2022-09-09T15:43:51;4.75;;;1.38;;
45338;SDS011;31071;51.478;5.710;2022-09-09T15:46:29;4.18;;;1.55;;
45338;SDS011;31071;51.478;5.710;2022-09-09T15:49:07;4.15;;;1.30;;
45338;SDS011;31071;51.478;5.710;2022-09-09T15:51:44;4.00;;;1.23;;
45338;SDS011;31071;51.478;5.710;2022-09-09T15:54:11;3.65;;;1.55;;
45338;SDS011;31071;51.478;5.710;2022-09-09T15:56:43;2.58;;;1.08;;
45338;SDS011;31071;51.478;5.710;2022-09-09T15:59:10;4.97;;;1.40;;
45338;SDS011;31071;51.478;5.710;2022-09-09T16:01:36;6.53;;;1.50;;
45338;SDS011;31071;51.478;5.710;2022-09-09T16:04:01;3.38;;;1.05;;
45338;SDS011;31071;51.478;5.710;2022-09-09T16:06:28;5.10;;;1.20;;
45338;SDS011;31071;51.478;5.710;2022-09-09T16:08:54;5.00;;;1.73;;
45338;SDS011;31071;51.478;5.710;2022-09-09T16:11:28;6.10;;;2.00;;
45338;SDS011;31071;51.478;5.710;2022-09-09T16:13:58;4.03;;;1.65;;
45338;SDS011;31071;51.478;5.710;2022-09-09T16:16:25;6.50;;;2.00;;
45338;SDS011;31071;51.478;5.710;2022-09-09T16:18:56;5.40;;;1.92;;
45338;SDS011;31071;51.478;5.710;2022-09-09T16:21:27;6.43;;;1.70;;
45338;SDS011;31071;51.478;5.710;2022-09-09T16:23:55;4.78;;;1.77;;
45338;SDS011;31071;51.478;5.710;2022-09-09T16:26:24;6.28;;;1.95;;
45338;SDS011;31071;51.478;5.710;2022-09-09T16:28:50;9.77;;;1.77;;
45338;SDS011;31071;51.478;5.710;2022-09-09T16:31:16;3.22;;;1.38;;
45338;SDS011;31071;51.478;5.710;2022-09-09T16:33:44;3.95;;;1.20;;
45338;SDS011;31071;51.478;5.710;2022-09-09T16:36:12;3.85;;;1.08;;
45338;SDS011;31071;51.478;5.710;2022-09-09T16:38:39;3.22;;;1.25;;
45338;SDS011;31071;51.478;5.710;2022-09-09T16:41:05;3.83;;;1.08;;
45338;SDS011;31071;51.478;5.710;2022-09-09T16:43:32;2.28;;;1.33;;
45338;SDS011;31071;51.478;5.710;2022-09-09T16:45:59;3.70;;;1.52;;
45338;SDS011;31071;51.478;5.710;2022-09-09T16:48:34;4.38;;;1.02;;
45338;SDS011;31071;51.478;5.710;2022-09-09T16:51:04;9.95;;;1.65;;
45338;SDS011;31071;51.478;5.710;2022-09-09T16:53:35;9.13;;;1.90;;
45338;SDS011;31071;51.478;5.710;2022-09-09T16:56:07;4.25;;;1.90;;
45338;SDS011;31071;51.478;5.710;2022-09-09T16:58:34;10.50;;;2.72;;
45338;SDS011;31071;51.478;5.710;2022-09-09T17:01:00;8.30;;;2.88;;
45338;SDS011;31071;51.478;5.710;2022-09-09T17:03:28;20.67;;;4.75;;
45338;SDS011;31071;51.478;5.710;2022-09-09T17:05:54;3.25;;;1.08;;
45338;SDS011;31071;51.478;5.710;2022-09-09T17:08:21;8.30;;;1.67;;
45338;SDS011;31071;51.478;5.710;2022-09-09T17:10:46;5.63;;;1.73;;
45338;SDS011;31071;51.478;5.710;2022-09-09T17:13:12;4.68;;;1.23;;
45338;SDS011;31071;51.478;5.710;2022-09-09T17:15:41;5.93;;;2.47;;
45338;SDS011;31071;51.478;5.710;2022-09-09T17:18:08;4.75;;;2.03;;